Time;durP1;ratioP1;P1;durP2;ratioP2;P2;SDS_P1;SDS_P2;PMS_P1;PMS_P2;Temp;Humidity;BMP_temperature;BMP_pressure;BME280_temperature;BME280_humidity;BME280_pressure;Samples;Min_cycle;Max_cycle;Signal;HPM_P1;HPM_P2
2023/09/11 00:00:10;;;;;;;12.45;6.97;;;;;;;22.11;64.14;99882.78;4966391;28;20507;-86
2023/09/11 00:02:37;;;;;;;11.30;7.03;;;;;;;22.05;64.21;99878.19;4941798;28;20062;-85
2023/09/11 00:05:04;;;;;;;10.32;7.30;;;;;;;22.05;64.33;99871.97;4948922;28;20729;-86
2023/09/11 00:07:31;;;;;;;11.20;6.68;;;;;;;22.01;64.38;99868.88;4946021;28;20050;-86
2023/09/11 00:09:58;;;;;;;10.45;6.55;;;;;;;22.01;64.33;99876.97;4937809;28;20193;-85
2023/09/11 00:12:25;;;;;;;13.60;7.03;;;;;;;22.01;64.34;99871.56;4948499;28;20047;-86
2023/09/11 00:14:51;;;;;;;8.27;6.43;;;;;;;22.00;64.17;99877.19;4965203;28;20039;-85
2023/09/11 00:17:18;;;;;;;10.70;7.47;;;;;;;21.96;64.19;99865.97;4941781;28;20052;-86
2023/09/11 00:19:45;;;;;;;9.60;6.70;;;;;;;21.95;64.42;99868.84;4942844;28;20054;-86
2023/09/11 00:22:12;;;;;;;8.88;6.78;;;;;;;21.93;64.42;99868.22;4957507;28;20680;-86
2023/09/11 00:24:39;;;;;;;10.73;6.35;;;;;;;21.91;64.29;99865.75;4945206;28;20126;-86
2023/09/11 00:27:06;;;;;;;8.13;6.30;;;;;;;21.88;64.57;99858.91;4932812;28;20043;-86
2023/09/11 00:29:33;;;;;;;9.18;7.10;;;;;;;21.86;64.29;99858.25;4929388;28;20134;-86
2023/09/11 00:32:00;;;;;;;8.00;7.05;;;;;;;21.84;64.54;99856.81;4938127;28;20054;-86
2023/09/11 00:34:29;;;;;;;10.05;6.85;;;;;;;21.85;64.41;99858.47;4951534;28;20129;-86
2023/09/11 00:36:57;;;;;;;9.75;6.75;;;;;;;21.85;64.03;99855.75;4939188;28;20055;-86
2023/09/11 00:39:24;;;;;;;7.80;6.90;;;;;;;21.85;64.45;99847.66;4926105;28;20046;-85
2023/09/11 00:41:51;;;;;;;13.18;7.55;;;;;;;21.80;64.35;99847.44;4928697;28;20503;-86
2023/09/11 00:44:17;;;;;;;8.13;6.80;;;;;;;21.82;64.45;99843.50;4939396;28;20043;-86
2023/09/11 00:46:44;;;;;;;10.02;6.82;;;;;;;21.81;64.18;99843.72;4939135;28;20630;-86
2023/09/11 00:49:11;;;;;;;12.10;6.72;;;;;;;21.77;64.23;99837.88;4945609;28;20097;-86
2023/09/11 00:51:38;;;;;;;9.73;7.20;;;;;;;21.76;64.29;99847.03;4951729;28;20942;-86
2023/09/11 00:54:05;;;;;;;9.63;6.72;;;;;;;21.72;64.15;99840.38;4941620;28;20794;-86
2023/09/11 00:56:32;;;;;;;7.95;7.07;;;;;;;21.67;64.08;99843.69;4925286;28;20151;-86
2023/09/11 00:58:59;;;;;;;9.93;7.28;;;;;;;21.65;64.22;99842.25;4913127;28;20043;-85
2023/09/11 01:01:26;;;;;;;9.15;7.07;;;;;;;21.63;64.12;99845.16;4932912;28;20051;-86
2023/09/11 01:03:53;;;;;;;13.50;7.20;;;;;;;21.63;64.33;99845.16;4934697;28;20061;-86
2023/09/11 01:06:21;;;;;;;8.02;6.82;;;;;;;21.62;64.38;99837.25;4969612;28;20114;-86
2023/09/11 01:08:49;;;;;;;11.05;7.38;;;;;;;21.62;64.10;99839.97;4944089;28;20059;-86
2023/09/11 01:11:18;;;;;;;9.82;7.43;;;;;;;21.60;64.20;99833.94;4961624;28;20122;-86
2023/09/11 01:13:45;;;;;;;9.38;7.57;;;;;;;21.57;64.28;99831.66;4960643;28;20793;-86
2023/09/11 01:16:42;;;;;;;8.35;6.95;;;;;;;21.45;64.51;99832.28;4934115;28;20051;-86
2023/09/11 01:19:36;;;;;;;9.57;6.65;;;;;;;21.41;64.57;99825.63;4943878;28;20490;-86
2023/09/11 01:22:06;;;;;;;9.82;7.05;;;;;;;21.50;64.32;99828.97;4957716;28;20042;-86
2023/09/11 01:24:47;;;;;;;9.05;7.10;;;;;;;21.38;64.64;99831.44;4941057;28;20046;-86
2023/09/11 01:27:32;;;;;;;11.10;6.32;;;;;;;21.49;64.43;99826.47;4958637;28;20043;-85
2023/09/11 01:30:00;;;;;;;10.32;6.57;;;;;;;21.48;64.43;99830.22;4957619;28;20130;-86
2023/09/11 01:32:27;;;;;;;7.95;6.40;;;;;;;21.43;64.25;99823.53;4930193;28;20559;-86
2023/09/11 01:34:55;;;;;;;8.20;7.03;;;;;;;21.42;64.56;99821.91;4925473;28;20115;-85
2023/09/11 01:37:21;;;;;;;11.10;7.28;;;;;;;21.41;64.35;99830.19;4942574;28;20467;-86
2023/09/11 01:39:48;;;;;;;14.07;7.38;;;;;;;21.40;64.51;99825.84;4925297;28;20450;-86
2023/09/11 01:42:19;;;;;;;8.18;7.28;;;;;;;21.34;64.49;99832.00;4955823;28;20051;-86
2023/09/11 01:44:47;;;;;;;9.77;6.72;;;;;;;21.38;64.31;99831.44;4954659;28;20566;-85
2023/09/11 01:47:17;;;;;;;11.02;6.97;;;;;;;21.29;64.18;99829.09;4911207;28;20048;-86
2023/09/11 01:49:45;;;;;;;11.38;7.20;;;;;;;21.25;64.35;99832.22;4930450;28;20071;-86
2023/09/11 01:52:12;;;;;;;8.98;7.22;;;;;;;21.19;64.38;99834.91;4956341;28;20053;-86
2023/09/11 01:54:39;;;;;;;8.73;6.70;;;;;;;21.20;64.60;99823.91;4921092;28;20042;-86
2023/09/11 01:57:06;;;;;;;9.65;6.70;;;;;;;21.21;64.44;99825.56;4930195;28;20054;-86
2023/09/11 01:59:33;;;;;;;9.65;6.93;;;;;;;21.23;64.69;99828.88;4955899;28;20047;-86
2023/09/11 02:02:00;;;;;;;9.88;7.28;;;;;;;21.23;64.41;99833.47;4953938;28;20129;-86
2023/09/11 02:04:28;;;;;;;8.35;6.75;;;;;;;21.21;64.40;99833.66;4911601;28;20150;-86
2023/09/11 02:06:54;;;;;;;10.77;6.65;;;;;;;21.22;64.68;99829.09;4936672;28;20051;-86
2023/09/11 02:09:21;;;;;;;9.73;7.22;;;;;;;21.12;64.55;99826.81;4925475;28;20558;-86
2023/09/11 02:11:48;;;;;;;12.50;7.00;;;;;;;21.09;64.54;99827.22;4913860;28;20138;-86
2023/09/11 02:14:15;;;;;;;11.35;7.10;;;;;;;21.09;64.61;99823.66;4969154;28;20058;-85
2023/09/11 02:16:41;;;;;;;15.18;7.63;;;;;;;21.10;64.73;99823.47;4948090;28;20054;-86
2023/09/11 02:19:08;;;;;;;9.60;7.07;;;;;;;21.12;64.46;99824.09;4944069;28;20054;-86
2023/09/11 02:21:35;;;;;;;9.43;6.90;;;;;;;21.09;64.36;99824.53;4944078;28;20439;-86
2023/09/11 02:24:02;;;;;;;7.60;6.32;;;;;;;21.10;64.42;99828.88;4969698;28;20444;-86
2023/09/11 02:26:29;;;;;;;10.68;6.72;;;;;;;21.08;64.22;99827.41;4934197;28;20050;-86
2023/09/11 02:28:59;;;;;;;8.90;6.97;;;;;;;21.10;64.35;99830.75;4932117;28;20150;-86
2023/09/11 02:31:26;;;;;;;10.10;7.10;;;;;;;21.08;64.45;99824.72;4947535;28;20130;-87
2023/09/11 02:33:54;;;;;;;12.15;7.00;;;;;;;21.05;64.46;99820.56;4958864;28;20450;-86
2023/09/11 02:36:21;;;;;;;7.93;6.72;;;;;;;21.06;64.45;99822.19;4933443;28;20053;-87
2023/09/11 02:38:48;;;;;;;8.45;7.55;;;;;;;21.03;64.46;99822.63;4959019;28;20122;-86
2023/09/11 02:41:15;;;;;;;10.13;7.10;;;;;;;21.01;64.50;99822.84;4964953;28;20411;-86
2023/09/11 02:43:41;;;;;;;10.05;6.70;;;;;;;21.02;64.36;99821.78;4938418;28;20577;-86
2023/09/11 02:46:08;;;;;;;9.05;6.97;;;;;;;21.00;64.28;99826.56;4954070;28;20042;-86
2023/09/11 02:48:38;;;;;;;10.68;7.00;;;;;;;20.98;64.33;99817.00;4940884;28;20047;-86
2023/09/11 02:51:05;;;;;;;9.07;6.95;;;;;;;20.98;64.44;99825.09;4927084;28;20058;-85
2023/09/11 02:53:32;;;;;;;10.43;6.85;;;;;;;20.93;64.40;99824.88;4940810;28;20215;-85
2023/09/11 02:55:59;;;;;;;10.70;6.80;;;;;;;20.90;64.16;99812.63;4934345;28;20055;-85
2023/09/11 02:58:25;;;;;;;10.00;6.40;;;;;;;20.93;64.33;99811.38;4943023;28;20121;-86
2023/09/11 03:00:52;;;;;;;9.70;6.47;;;;;;;20.91;64.21;99818.84;4956542;28;20043;-86
2023/09/11 03:03:19;;;;;;;12.90;7.28;;;;;;;20.92;64.22;99817.81;4941908;28;20074;-86
2023/09/11 03:05:54;;;;;;;10.30;6.78;;;;;;;20.84;64.36;99815.28;4966074;28;20042;-86
2023/09/11 03:08:21;;;;;;;11.82;6.90;;;;;;;20.86;64.10;99814.03;4936159;28;20402;-86
2023/09/11 03:10:48;;;;;;;10.32;6.65;;;;;;;20.85;64.36;99817.78;4968418;28;20131;-86
2023/09/11 03:13:15;;;;;;;12.57;6.28;;;;;;;20.79;64.10;99814.03;4937089;28;20038;-86
2023/09/11 03:15:45;;;;;;;10.73;6.85;;;;;;;20.79;64.24;99822.16;4916130;28;20054;-86
2023/09/11 03:18:13;;;;;;;9.93;6.90;;;;;;;20.78;64.06;99822.34;4935776;28;20055;-85
2023/09/11 03:20:40;;;;;;;13.20;7.30;;;;;;;20.75;64.43;99818.16;4940753;28;20058;-84
2023/09/11 03:23:07;;;;;;;9.93;6.47;;;;;;;20.75;64.34;99812.78;4929007;28;20057;-85
2023/09/11 03:25:37;;;;;;;8.48;6.00;;;;;;;20.74;64.57;99813.81;4910950;28;20062;-86
2023/09/11 03:28:04;;;;;;;10.90;7.28;;;;;;;20.73;64.59;99804.03;4941704;28;20054;-85
2023/09/11 03:30:31;;;;;;;9.18;6.00;;;;;;;20.69;64.35;99804.69;4937545;28;20047;-85
2023/09/11 03:32:58;;;;;;;13.35;7.07;;;;;;;20.67;64.27;99807.56;4969700;28;20053;-86
2023/09/11 03:35:25;;;;;;;8.20;6.50;;;;;;;20.66;64.82;99805.06;4909752;28;20053;-85
2023/09/11 03:37:52;;;;;;;10.45;6.40;;;;;;;20.62;64.44;99807.34;4945127;28;20062;-85
2023/09/11 03:40:20;;;;;;;10.02;6.68;;;;;;;20.58;64.31;99806.94;4957713;28;20050;-85
2023/09/11 03:42:47;;;;;;;8.18;6.45;;;;;;;20.58;64.63;99797.97;4951850;28;20735;-85
2023/09/11 03:45:14;;;;;;;7.65;6.68;;;;;;;20.57;64.71;99802.53;4940383;28;20388;-85
2023/09/11 03:47:40;;;;;;;9.35;6.30;;;;;;;20.57;64.77;99809.81;4849546;28;20120;-85
2023/09/11 03:50:13;;;;;;;10.90;6.72;;;;;;;20.44;64.96;99807.03;4926538;28;20065;-85
2023/09/11 03:52:40;;;;;;;9.77;6.55;;;;;;;20.50;64.85;99809.75;4955194;28;20065;-85
2023/09/11 03:55:10;;;;;;;8.13;6.43;;;;;;;20.45;64.65;99801.41;4955233;28;20577;-85
2023/09/11 03:57:37;;;;;;;9.35;6.20;;;;;;;20.42;64.79;99809.91;4924600;28;20356;-85
2023/09/11 04:00:10;;;;;;;10.88;6.43;;;;;;;20.40;64.80;99801.19;4946369;28;20043;-85
2023/09/11 04:02:40;;;;;;;9.65;6.43;;;;;;;20.39;64.48;99803.06;4950065;28;20443;-86
2023/09/11 04:05:07;;;;;;;11.55;7.13;;;;;;;20.38;64.82;99806.81;4937284;28;20047;-89
2023/09/11 04:07:34;;;;;;;10.75;6.80;;;;;;;20.34;64.79;99802.81;4923384;28;20132;-90
2023/09/11 04:10:01;;;;;;;11.38;7.45;;;;;;;20.30;64.71;99798.88;4937386;28;20058;-89
2023/09/11 04:12:28;;;;;;;8.70;7.70;;;;;;;20.31;64.88;99788.94;4936575;28;20058;-91
2023/09/11 04:14:55;;;;;;;11.27;7.00;;;;;;;20.30;64.75;99796.19;4951250;28;20118;-89
2023/09/11 04:17:22;;;;;;;14.43;7.38;;;;;;;20.29;64.84;99789.13;4918141;28;20134;-86
2023/09/11 04:19:49;;;;;;;10.00;8.25;;;;;;;20.24;65.33;99796.97;4933873;28;20105;-84
2023/09/11 04:22:16;;;;;;;10.73;8.18;;;;;;;20.26;64.92;99792.22;4952114;28;20435;-83
2023/09/11 04:24:43;;;;;;;10.15;7.13;;;;;;;20.24;64.84;99788.88;4961658;28;20055;-83
2023/09/11 04:27:12;;;;;;;9.05;6.47;;;;;;;20.23;64.56;99789.09;4961594;28;20423;-83
2023/09/11 04:29:40;;;;;;;10.07;6.43;;;;;;;20.22;64.79;99792.81;4932416;28;20055;-82
2023/09/11 04:32:07;;;;;;;12.55;6.82;;;;;;;20.17;64.64;99785.31;4930035;28;20047;-81
2023/09/11 04:34:34;;;;;;;8.52;6.50;;;;;;;20.20;65.00;99795.72;4972369;28;20074;-82
2023/09/11 04:37:01;;;;;;;9.02;6.97;;;;;;;20.18;64.92;99792.38;4932968;28;20058;-82
2023/09/11 04:39:28;;;;;;;8.02;6.72;;;;;;;20.18;64.73;99789.69;4930774;28;20055;-82
2023/09/11 04:41:55;;;;;;;11.70;7.80;;;;;;;20.17;64.88;99798.78;4933716;28;20050;-81
2023/09/11 04:44:22;;;;;;;10.85;7.10;;;;;;;20.13;64.76;99795.69;4941482;28;20054;-81
2023/09/11 04:46:49;;;;;;;13.95;6.95;;;;;;;20.13;64.97;99798.38;4928785;28;20058;-81
2023/09/11 04:49:16;;;;;;;9.07;6.60;;;;;;;20.13;64.77;99802.94;4933123;28;20138;-82
2023/09/11 04:51:43;;;;;;;8.85;7.22;;;;;;;20.13;64.95;99806.47;4927800;28;20374;-81
2023/09/11 04:54:10;;;;;;;7.72;6.70;;;;;;;20.14;64.49;99809.97;4944555;28;20051;-81
2023/09/11 04:56:37;;;;;;;13.30;7.15;;;;;;;20.07;64.73;99804.53;4930786;28;20055;-82
2023/09/11 04:59:04;;;;;;;12.35;6.72;;;;;;;20.09;64.67;99807.88;4917984;28;20051;-82
2023/09/11 05:01:30;;;;;;;8.48;6.88;;;;;;;20.10;64.77;99808.72;4936150;28;20479;-81
2023/09/11 05:03:57;;;;;;;10.18;6.93;;;;;;;20.07;64.72;99806.41;4947536;28;20134;-82
2023/09/11 05:06:24;;;;;;;7.97;6.43;;;;;;;20.03;64.61;99814.06;4912635;28;20054;-81
2023/09/11 05:08:51;;;;;;;9.98;6.70;;;;;;;19.99;65.04;99810.09;4931656;28;20042;-81
2023/09/11 05:11:37;;;;;;;10.35;6.35;;;;;;;19.98;64.95;99813.00;4951597;28;20050;-81
2023/09/11 05:14:06;;;;;;;8.57;7.00;;;;;;;19.98;64.73;99811.13;4959596;28;20050;-82
2023/09/11 05:16:32;;;;;;;9.98;6.57;;;;;;;19.97;64.88;99812.16;4946505;28;20066;-82
2023/09/11 05:18:59;;;;;;;9.57;6.30;;;;;;;19.98;64.76;99819.22;4936647;28;20047;-82
2023/09/11 05:21:27;;;;;;;9.18;6.57;;;;;;;19.97;64.76;99822.94;4946416;28;20059;-82
2023/09/11 05:23:54;;;;;;;10.63;6.55;;;;;;;19.95;65.07;99825.84;4948106;28;20569;-82
2023/09/11 05:26:21;;;;;;;8.55;6.65;;;;;;;19.92;65.24;99823.53;4947778;28;20049;-82
2023/09/11 05:28:47;;;;;;;10.93;6.82;;;;;;;19.96;65.23;99829.34;4959596;28;20101;-81
2023/09/11 05:31:15;;;;;;;9.07;6.88;;;;;;;19.98;64.89;99829.19;4943553;28;20083;-81
2023/09/11 05:33:42;;;;;;;10.55;7.20;;;;;;;19.97;64.69;99830.19;4942483;28;20542;-82
2023/09/11 05:36:08;;;;;;;14.00;7.05;;;;;;;19.96;65.07;99829.34;4959990;28;20071;-82
2023/09/11 05:38:35;;;;;;;12.38;7.63;;;;;;;19.99;64.94;99828.13;4974135;28;20035;-82
2023/09/11 05:41:02;;;;;;;11.13;7.30;;;;;;;20.01;65.11;99832.28;4924636;28;20134;-82
2023/09/11 05:43:29;;;;;;;18.25;7.90;;;;;;;19.98;65.23;99824.59;4974218;28;20051;-82
2023/09/11 05:45:56;;;;;;;11.32;7.28;;;;;;;19.99;65.20;99828.13;4952627;28;20110;-81
2023/09/11 05:48:23;;;;;;;9.43;7.80;;;;;;;20.02;65.04;99827.72;4942885;28;20176;-82
2023/09/11 05:50:53;;;;;;;10.20;7.40;;;;;;;20.04;64.86;99834.59;4946177;28;20043;-81
2023/09/11 05:53:20;;;;;;;12.35;7.75;;;;;;;20.05;64.99;99832.72;4929297;28;20043;-82
2023/09/11 05:55:46;;;;;;;11.95;7.28;;;;;;;20.00;64.66;99838.72;4947152;28;20963;-81
2023/09/11 05:58:14;;;;;;;8.98;7.18;;;;;;;20.01;64.74;99840.38;4937514;28;20553;-81
2023/09/11 06:00:42;;;;;;;9.23;7.20;;;;;;;20.03;64.71;99837.50;4957503;28;20043;-81
2023/09/11 06:03:08;;;;;;;11.52;6.57;;;;;;;20.09;64.64;99844.78;4943270;28;20478;-81
2023/09/11 06:05:36;;;;;;;10.88;7.07;;;;;;;20.06;64.47;99839.78;4944355;28;20439;-81
2023/09/11 06:08:04;;;;;;;12.32;8.10;;;;;;;20.11;64.71;99837.34;4943870;28;20043;-81
2023/09/11 06:10:31;;;;;;;16.65;7.30;;;;;;;20.11;64.92;99837.34;4947034;28;20138;-82
2023/09/11 06:12:57;;;;;;;12.82;8.13;;;;;;;20.09;64.60;99836.69;4949062;28;20130;-81
2023/09/11 06:15:25;;;;;;;14.73;7.78;;;;;;;20.10;64.85;99838.38;4936074;28;20043;-81
2023/09/11 06:17:52;;;;;;;12.13;7.53;;;;;;;20.11;64.91;99843.56;4924786;28;20502;-81
2023/09/11 06:20:21;;;;;;;15.63;7.60;;;;;;;20.17;65.04;99841.94;4949209;28;20058;-81
2023/09/11 06:22:49;;;;;;;12.45;7.65;;;;;;;20.17;65.22;99848.19;4967777;28;20126;-82
2023/09/11 06:25:16;;;;;;;13.20;7.47;;;;;;;20.20;65.15;99843.41;4928819;28;20056;-81
2023/09/11 06:27:43;;;;;;;9.75;7.32;;;;;;;20.24;65.38;99852.75;4940935;28;20499;-81
2023/09/11 06:30:10;;;;;;;11.60;7.80;;;;;;;20.27;65.30;99841.56;4961458;28;20126;-82
2023/09/11 06:32:37;;;;;;;16.50;8.30;;;;;;;20.26;65.28;99854.22;4956677;28;20047;-81
2023/09/11 06:35:07;;;;;;;15.38;7.30;;;;;;;20.30;65.26;99847.44;4945806;28;20141;-82
2023/09/11 06:37:34;;;;;;;12.95;8.15;;;;;;;20.35;65.22;99849.50;4927726;28;20106;-81
2023/09/11 06:40:00;;;;;;;18.00;8.23;;;;;;;20.38;65.35;99849.13;4947896;28;20038;-82
2023/09/11 06:42:27;;;;;;;13.30;8.70;;;;;;;20.42;65.22;99853.06;4953328;28;20051;-82
2023/09/11 06:44:54;;;;;;;12.45;7.50;;;;;;;20.42;65.17;99861.16;4934202;28;20098;-82
2023/09/11 06:47:21;;;;;;;13.68;7.60;;;;;;;20.42;65.36;99853.06;4925736;28;20414;-82
2023/09/11 06:49:48;;;;;;;12.15;8.23;;;;;;;20.42;65.58;99855.78;4929869;28;20098;-81
2023/09/11 06:52:16;;;;;;;11.98;7.88;;;;;;;20.41;65.68;99853.28;4954242;28;20502;-82
2023/09/11 06:54:43;;;;;;;13.50;8.68;;;;;;;20.45;65.85;99849.16;4945634;28;20561;-81
2023/09/11 06:57:10;;;;;;;16.35;7.88;;;;;;;20.51;65.73;99851.06;4939566;28;20050;-81
2023/09/11 06:59:37;;;;;;;10.05;7.40;;;;;;;20.56;66.26;99849.44;4941099;28;20113;-82
2023/09/11 07:02:04;;;;;;;14.52;8.80;;;;;;;20.60;66.23;99841.78;4952567;28;20525;-82
2023/09/11 07:04:31;;;;;;;12.35;8.07;;;;;;;20.60;65.99;99850.69;4931093;28;20043;-81
2023/09/11 07:06:58;;;;;;;16.15;8.52;;;;;;;20.59;65.76;99843.66;4965230;28;20051;-82
2023/09/11 07:09:24;;;;;;;12.57;7.75;;;;;;;20.62;65.85;99836.19;4949147;28;20047;-82
2023/09/11 07:11:52;;;;;;;13.18;8.18;;;;;;;20.64;66.09;99842.22;4960973;28;20050;-82
2023/09/11 07:14:19;;;;;;;11.57;8.43;;;;;;;20.68;66.05;99848.88;4935023;28;20058;-81
2023/09/11 07:16:46;;;;;;;11.20;8.52;;;;;;;20.69;65.90;99837.88;4955717;28;20071;-82
2023/09/11 07:19:13;;;;;;;13.52;8.18;;;;;;;20.73;65.95;99841.00;4949779;28;20043;-82
2023/09/11 07:21:41;;;;;;;11.85;8.90;;;;;;;20.75;66.24;99841.63;4959526;28;21962;-82
2023/09/11 07:24:08;;;;;;;13.32;8.32;;;;;;;20.77;66.17;99837.69;4956369;28;20091;-82
2023/09/11 07:26:35;;;;;;;11.70;8.15;;;;;;;20.83;65.78;99827.97;4961021;28;20156;-82
2023/09/11 07:29:03;;;;;;;12.45;8.52;;;;;;;20.85;65.79;99827.75;4946974;28;20494;-82
2023/09/11 07:31:31;;;;;;;14.95;8.50;;;;;;;20.89;66.08;99831.69;4933423;28;20509;-82
2023/09/11 07:33:58;;;;;;;12.45;8.52;;;;;;;20.90;66.04;99828.81;4932489;28;20047;-82
2023/09/11 07:36:26;;;;;;;11.77;7.70;;;;;;;20.89;65.59;99824.47;4926869;28;20055;-82
2023/09/11 07:38:53;;;;;;;14.15;8.23;;;;;;;20.94;65.53;99826.53;4941157;28;20488;-82
2023/09/11 07:41:20;;;;;;;11.43;8.10;;;;;;;20.97;65.36;99828.84;4952394;28;20047;-82
2023/09/11 07:43:50;;;;;;;12.05;8.23;;;;;;;20.98;65.25;99823.22;4953289;28;20113;-82
2023/09/11 07:46:20;;;;;;;9.98;7.55;;;;;;;21.02;65.35;99823.66;4942154;28;20046;-82
2023/09/11 07:48:48;;;;;;;9.07;7.40;;;;;;;21.05;64.97;99834.06;4931792;28;20107;-82
2023/09/11 07:51:15;;;;;;;9.95;7.53;;;;;;;21.07;65.22;99826.59;4927089;28;20074;-82
2023/09/11 07:53:44;;;;;;;11.18;7.53;;;;;;;21.08;64.90;99827.41;4952500;28;20125;-82
2023/09/11 07:56:11;;;;;;;12.52;7.88;;;;;;;21.12;64.80;99828.69;4952075;28;20042;-82
2023/09/11 07:58:38;;;;;;;12.15;8.27;;;;;;;21.16;64.63;99827.22;4960074;28;20077;-82
2023/09/11 08:01:05;;;;;;;11.43;8.23;;;;;;;21.17;65.14;99835.13;4945651;28;20121;-82
2023/09/11 08:03:34;;;;;;;9.27;7.78;;;;;;;21.22;65.51;99831.81;4967304;28;20047;-82
2023/09/11 08:06:01;;;;;;;10.57;8.40;;;;;;;21.24;65.44;99833.28;4939304;28;20474;-82
2023/09/11 08:08:28;;;;;;;11.77;8.18;;;;;;;21.23;65.58;99820.78;4946196;28;20046;-82
2023/09/11 08:10:55;;;;;;;13.40;7.95;;;;;;;21.29;65.71;99829.94;4927082;28;20047;-82
2023/09/11 08:13:24;;;;;;;14.02;8.40;;;;;;;21.32;65.99;99828.69;4935549;28;20083;-82
2023/09/11 08:15:51;;;;;;;14.93;8.35;;;;;;;21.34;66.68;99823.91;4944565;28;20054;-82
2023/09/11 08:18:18;;;;;;;13.98;9.55;;;;;;;21.39;67.15;99827.69;4960341;28;20123;-82
2023/09/11 08:20:49;;;;;;;13.40;9.32;;;;;;;21.44;67.40;99824.38;4955494;28;20039;-82
2023/09/11 08:23:16;;;;;;;13.27;9.40;;;;;;;21.46;67.85;99828.53;4954799;28;20411;-82
2023/09/11 08:25:43;;;;;;;12.63;9.23;;;;;;;21.46;67.77;99823.13;4949065;28;20046;-82
2023/09/11 08:28:10;;;;;;;12.00;8.23;;;;;;;21.50;68.37;99822.69;4943727;28;20547;-83
2023/09/11 08:30:37;;;;;;;11.70;9.50;;;;;;;21.54;68.36;99823.97;4951345;28;20444;-82
2023/09/11 08:33:07;;;;;;;13.45;8.20;;;;;;;21.57;68.11;99823.53;4953485;28;20051;-82
2023/09/11 08:35:34;;;;;;;15.10;8.45;;;;;;;21.58;68.10;99826.06;4953455;28;20047;-83
2023/09/11 08:38:02;;;;;;;20.02;9.68;;;;;;;21.62;68.93;99821.88;4944071;28;20047;-83
2023/09/11 08:40:30;;;;;;;12.75;9.23;;;;;;;21.68;69.09;99821.06;4913960;28;20050;-82
2023/09/11 08:42:58;;;;;;;12.63;8.70;;;;;;;21.72;69.42;99817.94;4942078;28;20050;-82
2023/09/11 08:45:26;;;;;;;14.68;8.82;;;;;;;21.72;69.69;99817.94;4907895;28;20067;-83
2023/09/11 08:47:56;;;;;;;11.52;9.15;;;;;;;21.75;69.70;99818.34;4941876;28;20047;-82
2023/09/11 08:50:29;;;;;;;12.77;8.88;;;;;;;21.76;69.30;99809.19;4945703;28;20368;-83
2023/09/11 08:52:57;;;;;;;12.95;9.15;;;;;;;21.82;69.58;99811.06;4953296;28;20046;-83
2023/09/11 08:55:27;;;;;;;14.60;8.70;;;;;;;21.88;69.97;99806.72;4944624;28;20051;-83
2023/09/11 08:57:55;;;;;;;11.95;8.20;;;;;;;21.91;69.78;99814.38;4929903;28;20058;-83
2023/09/11 09:00:22;;;;;;;12.80;10.10;;;;;;;21.92;69.27;99813.34;4936351;28;20386;-83
2023/09/11 09:02:49;;;;;;;12.07;8.88;;;;;;;21.94;69.78;99811.25;4916949;28;20521;-83
2023/09/11 09:05:16;;;;;;;12.77;8.90;;;;;;;21.97;69.76;99804.59;4929541;28;20042;-83
2023/09/11 09:07:45;;;;;;;13.10;8.63;;;;;;;22.02;69.81;99810.22;4948289;28;20055;-82
2023/09/11 09:10:12;;;;;;;13.20;8.65;;;;;;;22.04;69.93;99803.53;4950741;28;20039;-83
2023/09/11 09:12:40;;;;;;;14.15;10.05;;;;;;;22.09;69.87;99805.63;4934648;28;20118;-82
2023/09/11 09:15:07;;;;;;;11.13;9.18;;;;;;;22.10;69.65;99797.28;4949097;28;20050;-83
2023/09/11 09:17:34;;;;;;;15.27;9.38;;;;;;;22.13;69.41;99790.63;4946627;28;20043;-83
2023/09/11 09:20:01;;;;;;;14.38;9.77;;;;;;;22.18;69.55;99793.50;4975411;28;20513;-83
2023/09/11 09:22:28;;;;;;;13.73;8.30;;;;;;;22.21;69.98;99795.84;4926695;28;20073;-82
2023/09/11 09:24:54;;;;;;;17.17;9.23;;;;;;;22.24;69.64;99794.59;4921682;28;20054;-83
2023/09/11 09:27:30;;;;;;;11.80;8.82;;;;;;;22.30;69.39;99794.53;4960954;28;20059;-83
2023/09/11 09:29:57;;;;;;;15.07;8.98;;;;;;;22.31;69.29;99793.53;4936102;28;20055;-83
2023/09/11 09:32:24;;;;;;;13.65;9.52;;;;;;;22.34;69.67;99789.56;4946108;28;20046;-83
2023/09/11 09:34:54;;;;;;;10.30;8.30;;;;;;;22.35;69.54;99793.91;4927699;28;20047;-83
2023/09/11 09:37:21;;;;;;;10.93;8.07;;;;;;;22.37;68.84;99788.31;4971404;28;20045;-83
2023/09/11 09:39:48;;;;;;;12.18;8.10;;;;;;;22.41;68.97;99782.22;4968786;28;20455;-83
2023/09/11 09:42:16;;;;;;;10.63;7.93;;;;;;;22.43;69.13;99785.56;4959061;28;20372;-83
2023/09/11 09:44:52;;;;;;;10.93;8.25;;;;;;;22.44;68.55;99773.69;4943552;28;20050;-83
2023/09/11 09:47:21;;;;;;;12.48;9.10;;;;;;;22.50;68.74;99780.13;4947589;28;20057;-83
2023/09/11 09:49:50;;;;;;;10.77;8.98;;;;;;;22.52;68.79;99775.34;4959060;28;20435;-83
2023/09/11 09:52:18;;;;;;;12.32;8.63;;;;;;;22.55;68.68;99780.31;4916299;28;20408;-83
2023/09/11 09:54:47;;;;;;;11.18;8.25;;;;;;;22.57;69.04;99771.97;4917898;28;20075;-83
2023/09/11 09:57:16;;;;;;;10.23;7.70;;;;;;;22.63;69.12;99763.81;4946399;28;20047;-83
2023/09/11 09:59:47;;;;;;;10.68;8.63;;;;;;;22.66;69.56;99766.09;4957926;28;20082;-83
2023/09/11 10:02:14;;;;;;;12.05;8.80;;;;;;;22.70;69.14;99764.63;4929046;28;20059;-83
2023/09/11 10:04:41;;;;;;;10.70;8.18;;;;;;;22.74;69.00;99763.16;4945640;28;20459;-83
2023/09/11 10:07:08;;;;;;;9.63;7.30;;;;;;;22.73;69.38;99752.53;4959321;28;20043;-83
2023/09/11 10:09:35;;;;;;;11.18;7.95;;;;;;;22.78;69.31;99751.88;4927649;28;20133;-83
2023/09/11 10:12:03;;;;;;;11.05;8.90;;;;;;;22.82;69.54;99751.22;4925991;28;20047;-83
2023/09/11 10:14:30;;;;;;;10.15;8.07;;;;;;;22.85;69.76;99753.50;4953340;28;20049;-83
2023/09/11 10:17:00;;;;;;;9.88;8.23;;;;;;;22.87;69.77;99748.69;4940711;28;20055;-83
2023/09/11 10:19:29;;;;;;;12.82;8.02;;;;;;;22.94;69.59;99754.06;4960411;28;20065;-83
2023/09/11 10:21:57;;;;;;;11.35;8.82;;;;;;;22.96;69.40;99738.44;4955837;28;20514;-83
2023/09/11 10:24:24;;;;;;;10.95;8.07;;;;;;;23.00;69.59;99741.53;4946951;28;20044;-83
2023/09/11 10:26:58;;;;;;;9.93;8.20;;;;;;;23.02;69.50;99734.84;4931963;28;20040;-83
2023/09/11 10:29:44;;;;;;;8.52;7.65;;;;;;;23.04;69.87;99735.47;4930722;28;20053;-84
2023/09/11 10:32:34;;;;;;;8.85;7.65;;;;;;;23.04;69.31;99730.06;4957359;28;20051;-83
2023/09/11 10:35:05;;;;;;;13.20;7.97;;;;;;;23.15;69.00;99737.50;4925941;28;20059;-83
2023/09/11 10:37:33;;;;;;;11.23;8.80;;;;;;;23.17;69.38;99721.81;4947775;28;20051;-83
2023/09/11 10:40:00;;;;;;;8.65;7.55;;;;;;;23.18;69.25;99725.38;4939109;28;20506;-83
2023/09/11 10:42:27;;;;;;;10.20;8.52;;;;;;;23.23;69.50;99719.28;4948047;28;20414;-84
2023/09/11 10:44:54;;;;;;;9.73;8.38;;;;;;;23.24;69.36;99719.06;4944299;28;20050;-83
2023/09/11 10:47:22;;;;;;;11.82;8.35;;;;;;;23.30;68.21;99714.63;4949563;28;20051;-83
2023/09/11 10:49:49;;;;;;;9.27;7.40;;;;;;;23.33;67.55;99714.19;4928580;28;20054;-84
2023/09/11 10:52:16;;;;;;;10.02;7.95;;;;;;;23.38;68.10;99709.78;4955884;28;20115;-84
2023/09/11 10:54:43;;;;;;;10.15;8.18;;;;;;;23.39;68.43;99708.72;4949922;28;22721;-83
2023/09/11 10:57:12;;;;;;;10.05;7.82;;;;;;;23.43;68.19;99711.81;4931184;28;20073;-83
2023/09/11 10:59:38;;;;;;;14.68;7.70;;;;;;;23.43;68.04;99709.09;4928832;28;20043;-84
2023/09/11 11:02:07;;;;;;;9.63;7.28;;;;;;;23.43;67.54;99689.31;4925631;28;20043;-84
2023/09/11 11:04:34;;;;;;;10.18;8.00;;;;;;;23.50;67.83;99695.50;4971132;28;20043;-84
2023/09/11 11:07:01;;;;;;;12.05;7.22;;;;;;;23.56;67.27;99700.84;4934225;28;20051;-84
2023/09/11 11:09:31;;;;;;;9.45;6.47;;;;;;;23.59;66.28;99689.56;4941911;28;20047;-84
2023/09/11 11:12:06;;;;;;;8.98;6.95;;;;;;;23.60;65.65;99691.22;4931565;28;20146;-84
2023/09/11 11:14:33;;;;;;;;;;;;;;;23.51;66.21;99689.00;4965079;28;20046;-84
2023/09/11 11:17:08;;;;;;;13.30;6.57;;;;;;;23.64;65.30;99688.88;4941494;28;20282;-83
2023/09/11 11:20:00;;;;;;;11.13;7.28;;;;;;;23.67;64.29;99687.63;4924338;28;20043;-84
2023/09/11 11:22:39;;;;;;;12.52;7.07;;;;;;;23.68;64.48;99689.25;4940220;28;20134;-83
2023/09/11 11:25:10;;;;;;;9.45;6.70;;;;;;;23.76;63.65;99683.56;4944316;28;20043;-83
2023/09/11 11:27:41;;;;;;;10.38;6.45;;;;;;;23.79;62.61;99677.72;4943534;28;20106;-84
2023/09/11 11:30:08;;;;;;;9.93;5.90;;;;;;;23.82;62.53;99675.38;4947004;28;20138;-83
2023/09/11 11:32:36;;;;;;;9.43;6.50;;;;;;;23.86;62.22;99681.16;4946743;28;20051;-84